Airfield :
LOGIN :

Register | Disclaimer

   EN    FR    IT 

 










Legend :    VFR   Marginal VFR   IFR   Intensive IFR   Very Intensive IFR
Visi :
Ceiling :
>= 8 km
>= 3000ft
5 to 8 km
1000 to 3000 ft
1500m to 5 km
500 to 1000 ft
800 to 1500m
200 to 500 ft
< 800m
< 200 ft
Symbols :   Thunderstorms  Fog  Heavy snow  Heavy precipitations  Wind > 20 kt
SIGMETs :     Misc.  Thunderstorms  Icing  Turbulence  Mountain Waves  Volcanic Ashes






- Airport Elevation : 266 ft
- IATA code : NCL


EGNT - Newcastle

CURRENT METAR :
  • 241450Z 26018KT 220V280 9999 SCT020 19/15 Q1008

EXPIRED METARs :
  • 241420Z 26017KT 9999 SCT020 20/15 Q1008
  • 241350Z 26020KT 9999 SCT020 21/15 Q1007
  • 241320Z 26019KT 9999 BKN020 20/15 Q1007
  • 241250Z 25022G32KT 9999 VCSH SCT019 21/15 Q1008
  • 241220Z 26023KT 9999 VCSH SCT016 20/15 Q1007

TAF TAF EGNT
Valid from the 24 at 12:00 until the 25 at 12:00 UTC


241101Z 2412/2512 25015KT 9999 SCT015
PROB40
TEMPO 2412/2418 26018G28KT
BECMG 2500/2503 20005KT
PROB30
TEMPO 2502/2511 BKN012
ATIS : +44 191 214 3400



MET'MAP, your aeronautical weather chart ! - Copyright ORBIFLY December 2007 - Disclaimer

ORBIFLY MET'MAP TEAM :

Programming & Development : Alexandra Zaïnal
Concept & original design : Baudouin d'Aumeries
Assistance for programming : Marc-Olivier Méhu
Technical & hardware support : Manuel Goepfert

Contact : metmap@orbifly.com




SOURCES & CREDITS :

   NOAA